sensor_id;sensor_type;location;lat;lon;timestamp;P1;durP1;ratioP1;P2;durP2;ratioP2
55148;SDS011;49539;48.160;11.530;2024-02-21T00:00:45;4.15;;;1.92;;
55148;SDS011;49539;48.160;11.530;2024-02-21T00:03:10;3.47;;;1.77;;
55148;SDS011;49539;48.160;11.530;2024-02-21T00:05:36;5.30;;;1.95;;
55148;SDS011;49539;48.160;11.530;2024-02-21T00:08:03;5.22;;;1.88;;
55148;SDS011;49539;48.160;11.530;2024-02-21T00:10:28;5.05;;;2.28;;
55148;SDS011;49539;48.160;11.530;2024-02-21T00:12:54;9.48;;;2.28;;
55148;SDS011;49539;48.160;11.530;2024-02-21T00:15:19;5.80;;;2.13;;
55148;SDS011;49539;48.160;11.530;2024-02-21T00:17:44;3.75;;;1.70;;
55148;SDS011;49539;48.160;11.530;2024-02-21T00:20:10;5.82;;;2.28;;
55148;SDS011;49539;48.160;11.530;2024-02-21T00:22:35;14.95;;;1.98;;
55148;SDS011;49539;48.160;11.530;2024-02-21T00:25:03;7.68;;;2.33;;
55148;SDS011;49539;48.160;11.530;2024-02-21T00:27:28;4.20;;;1.85;;
55148;SDS011;49539;48.160;11.530;2024-02-21T00:29:53;3.63;;;1.88;;
55148;SDS011;49539;48.160;11.530;2024-02-21T00:32:19;4.50;;;2.08;;
55148;SDS011;49539;48.160;11.530;2024-02-21T00:34:44;5.40;;;1.90;;
55148;SDS011;49539;48.160;11.530;2024-02-21T00:37:09;6.43;;;2.30;;
55148;SDS011;49539;48.160;11.530;2024-02-21T00:39:37;4.32;;;1.60;;
55148;SDS011;49539;48.160;11.530;2024-02-21T00:42:03;6.68;;;1.63;;
55148;SDS011;49539;48.160;11.530;2024-02-21T00:44:28;7.30;;;2.20;;
55148;SDS011;49539;48.160;11.530;2024-02-21T00:46:54;7.20;;;2.15;;
55148;SDS011;49539;48.160;11.530;2024-02-21T00:49:19;4.50;;;2.15;;
55148;SDS011;49539;48.160;11.530;2024-02-21T00:51:44;3.83;;;2.13;;
55148;SDS011;49539;48.160;11.530;2024-02-21T00:54:10;3.85;;;1.88;;
55148;SDS011;49539;48.160;11.530;2024-02-21T00:56:35;8.35;;;1.73;;
55148;SDS011;49539;48.160;11.530;2024-02-21T00:59:01;4.90;;;2.03;;
55148;SDS011;49539;48.160;11.530;2024-02-21T01:01:26;4.10;;;2.05;;
55148;SDS011;49539;48.160;11.530;2024-02-21T01:03:51;5.82;;;2.25;;
55148;SDS011;49539;48.160;11.530;2024-02-21T01:06:20;3.13;;;1.83;;
55148;SDS011;49539;48.160;11.530;2024-02-21T01:08:48;5.20;;;2.15;;
55148;SDS011;49539;48.160;11.530;2024-02-21T01:11:15;8.38;;;2.15;;
55148;SDS011;49539;48.160;11.530;2024-02-21T01:13:40;5.75;;;2.22;;
55148;SDS011;49539;48.160;11.530;2024-02-21T01:16:05;4.25;;;1.67;;
55148;SDS011;49539;48.160;11.530;2024-02-21T01:18:32;7.80;;;2.00;;
55148;SDS011;49539;48.160;11.530;2024-02-21T01:20:57;9.02;;;2.35;;
55148;SDS011;49539;48.160;11.530;2024-02-21T01:23:23;6.55;;;1.90;;
55148;SDS011;49539;48.160;11.530;2024-02-21T01:25:48;7.32;;;2.03;;
55148;SDS011;49539;48.160;11.530;2024-02-21T01:28:13;3.80;;;1.92;;
55148;SDS011;49539;48.160;11.530;2024-02-21T01:30:39;4.63;;;2.08;;
55148;SDS011;49539;48.160;11.530;2024-02-21T01:33:04;5.50;;;1.40;;
55148;SDS011;49539;48.160;11.530;2024-02-21T01:35:29;4.28;;;1.88;;
55148;SDS011;49539;48.160;11.530;2024-02-21T01:37:55;5.20;;;1.75;;
55148;SDS011;49539;48.160;11.530;2024-02-21T01:40:20;4.72;;;1.73;;
55148;SDS011;49539;48.160;11.530;2024-02-21T01:42:45;3.30;;;1.80;;
55148;SDS011;49539;48.160;11.530;2024-02-21T01:45:12;3.78;;;1.85;;
55148;SDS011;49539;48.160;11.530;2024-02-21T01:47:38;7.30;;;1.77;;
55148;SDS011;49539;48.160;11.530;2024-02-21T01:50:03;6.13;;;1.63;;
55148;SDS011;49539;48.160;11.530;2024-02-21T01:52:29;4.68;;;2.17;;
55148;SDS011;49539;48.160;11.530;2024-02-21T01:54:55;2.53;;;1.67;;
55148;SDS011;49539;48.160;11.530;2024-02-21T01:57:20;5.07;;;1.77;;
55148;SDS011;49539;48.160;11.530;2024-02-21T01:59:46;5.15;;;1.92;;
55148;SDS011;49539;48.160;11.530;2024-02-21T02:02:11;3.38;;;1.50;;
55148;SDS011;49539;48.160;11.530;2024-02-21T02:04:38;3.75;;;1.60;;
55148;SDS011;49539;48.160;11.530;2024-02-21T02:07:03;3.28;;;1.48;;
55148;SDS011;49539;48.160;11.530;2024-02-21T02:09:31;2.47;;;1.48;;
55148;SDS011;49539;48.160;11.530;2024-02-21T02:11:56;4.05;;;1.55;;
55148;SDS011;49539;48.160;11.530;2024-02-21T02:14:23;4.47;;;1.73;;
55148;SDS011;49539;48.160;11.530;2024-02-21T02:16:49;2.80;;;1.42;;
55148;SDS011;49539;48.160;11.530;2024-02-21T02:19:14;2.75;;;1.17;;
55148;SDS011;49539;48.160;11.530;2024-02-21T02:21:42;3.08;;;1.60;;
55148;SDS011;49539;48.160;11.530;2024-02-21T02:24:08;3.47;;;1.75;;
55148;SDS011;49539;48.160;11.530;2024-02-21T02:26:34;2.63;;;1.40;;
55148;SDS011;49539;48.160;11.530;2024-02-21T02:29:01;3.08;;;1.42;;
55148;SDS011;49539;48.160;11.530;2024-02-21T02:31:26;2.63;;;1.45;;
55148;SDS011;49539;48.160;11.530;2024-02-21T02:33:51;2.65;;;1.20;;
55148;SDS011;49539;48.160;11.530;2024-02-21T02:36:17;6.15;;;1.65;;
55148;SDS011;49539;48.160;11.530;2024-02-21T02:38:42;8.20;;;1.42;;
55148;SDS011;49539;48.160;11.530;2024-02-21T02:41:08;2.47;;;1.35;;
55148;SDS011;49539;48.160;11.530;2024-02-21T02:43:33;2.80;;;1.40;;
55148;SDS011;49539;48.160;11.530;2024-02-21T02:45:58;3.45;;;1.65;;
55148;SDS011;49539;48.160;11.530;2024-02-21T02:48:24;3.17;;;1.48;;
55148;SDS011;49539;48.160;11.530;2024-02-21T02:50:49;2.92;;;1.27;;
55148;SDS011;49539;48.160;11.530;2024-02-21T02:53:14;2.95;;;1.38;;
55148;SDS011;49539;48.160;11.530;2024-02-21T02:55:40;2.92;;;1.30;;
55148;SDS011;49539;48.160;11.530;2024-02-21T02:58:05;2.70;;;1.50;;
55148;SDS011;49539;48.160;11.530;2024-02-21T03:00:30;3.22;;;1.10;;
55148;SDS011;49539;48.160;11.530;2024-02-21T03:02:56;5.10;;;1.30;;
55148;SDS011;49539;48.160;11.530;2024-02-21T03:05:21;3.22;;;1.30;;
55148;SDS011;49539;48.160;11.530;2024-02-21T03:07:47;5.05;;;1.25;;
55148;SDS011;49539;48.160;11.530;2024-02-21T03:10:13;4.75;;;1.30;;
55148;SDS011;49539;48.160;11.530;2024-02-21T03:12:38;2.60;;;1.10;;
55148;SDS011;49539;48.160;11.530;2024-02-21T03:15:04;3.90;;;1.10;;
55148;SDS011;49539;48.160;11.530;2024-02-21T03:17:30;2.65;;;1.10;;
55148;SDS011;49539;48.160;11.530;2024-02-21T03:19:56;2.95;;;1.17;;
55148;SDS011;49539;48.160;11.530;2024-02-21T03:22:22;3.13;;;1.17;;
55148;SDS011;49539;48.160;11.530;2024-02-21T03:24:47;3.60;;;1.58;;
55148;SDS011;49539;48.160;11.530;2024-02-21T03:27:12;2.53;;;1.25;;
55148;SDS011;49539;48.160;11.530;2024-02-21T03:29:38;6.47;;;1.63;;
55148;SDS011;49539;48.160;11.530;2024-02-21T03:32:03;1.88;;;1.25;;
55148;SDS011;49539;48.160;11.530;2024-02-21T03:34:28;3.53;;;1.15;;
55148;SDS011;49539;48.160;11.530;2024-02-21T03:36:54;3.00;;;1.20;;
55148;SDS011;49539;48.160;11.530;2024-02-21T03:39:19;2.75;;;1.33;;
55148;SDS011;49539;48.160;11.530;2024-02-21T03:41:45;2.92;;;1.25;;
55148;SDS011;49539;48.160;11.530;2024-02-21T03:44:10;1.67;;;0.98;;
55148;SDS011;49539;48.160;11.530;2024-02-21T03:46:35;4.57;;;1.35;;
55148;SDS011;49539;48.160;11.530;2024-02-21T03:49:01;2.50;;;0.90;;
55148;SDS011;49539;48.160;11.530;2024-02-21T03:51:26;3.92;;;1.02;;
55148;SDS011;49539;48.160;11.530;2024-02-21T03:53:51;3.67;;;1.02;;
55148;SDS011;49539;48.160;11.530;2024-02-21T03:56:17;4.05;;;1.48;;
55148;SDS011;49539;48.160;11.530;2024-02-21T03:58:42;5.13;;;1.25;;
55148;SDS011;49539;48.160;11.530;2024-02-21T04:01:07;2.70;;;1.17;;
55148;SDS011;49539;48.160;11.530;2024-02-21T04:03:34;4.78;;;1.35;;
55148;SDS011;49539;48.160;11.530;2024-02-21T04:05:59;2.17;;;1.00;;
55148;SDS011;49539;48.160;11.530;2024-02-21T04:08:25;1.75;;;1.15;;
55148;SDS011;49539;48.160;11.530;2024-02-21T04:10:51;3.17;;;0.90;;
55148;SDS011;49539;48.160;11.530;2024-02-21T04:13:16;1.20;;;0.93;;
55148;SDS011;49539;48.160;11.530;2024-02-21T04:15:41;3.22;;;1.00;;
55148;SDS011;49539;48.160;11.530;2024-02-21T04:18:07;4.13;;;1.00;;
55148;SDS011;49539;48.160;11.530;2024-02-21T04:20:32;1.40;;;0.98;;
55148;SDS011;49539;48.160;11.530;2024-02-21T04:22:57;1.15;;;0.63;;
55148;SDS011;49539;48.160;11.530;2024-02-21T04:25:23;3.03;;;1.35;;
55148;SDS011;49539;48.160;11.530;2024-02-21T04:27:48;2.28;;;0.95;;
55148;SDS011;49539;48.160;11.530;2024-02-21T04:30:14;3.83;;;1.00;;
55148;SDS011;49539;48.160;11.530;2024-02-21T04:32:40;2.30;;;0.90;;
55148;SDS011;49539;48.160;11.530;2024-02-21T04:35:06;1.65;;;0.88;;
55148;SDS011;49539;48.160;11.530;2024-02-21T04:37:32;2.40;;;1.05;;
55148;SDS011;49539;48.160;11.530;2024-02-21T04:39:57;3.40;;;1.20;;
55148;SDS011;49539;48.160;11.530;2024-02-21T04:42:24;3.38;;;1.10;;
55148;SDS011;49539;48.160;11.530;2024-02-21T04:44:49;3.10;;;1.30;;
55148;SDS011;49539;48.160;11.530;2024-02-21T04:47:15;3.33;;;1.08;;
55148;SDS011;49539;48.160;11.530;2024-02-21T04:49:40;3.20;;;1.20;;
55148;SDS011;49539;48.160;11.530;2024-02-21T04:52:05;4.03;;;1.13;;
55148;SDS011;49539;48.160;11.530;2024-02-21T04:54:31;3.67;;;1.30;;
55148;SDS011;49539;48.160;11.530;2024-02-21T04:56:56;2.53;;;0.90;;
55148;SDS011;49539;48.160;11.530;2024-02-21T04:59:21;1.40;;;0.80;;
55148;SDS011;49539;48.160;11.530;2024-02-21T05:01:49;1.98;;;1.10;;
55148;SDS011;49539;48.160;11.530;2024-02-21T05:04:14;4.70;;;1.25;;
55148;SDS011;49539;48.160;11.530;2024-02-21T05:06:40;4.10;;;1.23;;
55148;SDS011;49539;48.160;11.530;2024-02-21T05:09:06;1.50;;;0.95;;
55148;SDS011;49539;48.160;11.530;2024-02-21T05:11:32;1.58;;;1.02;;
55148;SDS011;49539;48.160;11.530;2024-02-21T05:13:57;3.28;;;1.35;;
55148;SDS011;49539;48.160;11.530;2024-02-21T05:16:24;2.72;;;1.27;;
55148;SDS011;49539;48.160;11.530;2024-02-21T05:18:49;2.15;;;1.08;;
55148;SDS011;49539;48.160;11.530;2024-02-21T05:21:15;2.42;;;1.42;;
55148;SDS011;49539;48.160;11.530;2024-02-21T05:23:42;1.60;;;1.08;;
55148;SDS011;49539;48.160;11.530;2024-02-21T05:26:07;1.08;;;0.75;;
55148;SDS011;49539;48.160;11.530;2024-02-21T05:28:32;1.17;;;0.90;;
55148;SDS011;49539;48.160;11.530;2024-02-21T05:31:01;4.30;;;1.75;;
55148;SDS011;49539;48.160;11.530;2024-02-21T05:33:26;2.45;;;1.05;;
55148;SDS011;49539;48.160;11.530;2024-02-21T05:35:52;2.65;;;1.17;;
55148;SDS011;49539;48.160;11.530;2024-02-21T05:38:17;4.18;;;1.15;;
55148;SDS011;49539;48.160;11.530;2024-02-21T05:40:44;2.00;;;0.90;;
55148;SDS011;49539;48.160;11.530;2024-02-21T05:43:09;3.30;;;0.73;;
55148;SDS011;49539;48.160;11.530;2024-02-21T05:45:35;3.00;;;1.10;;
55148;SDS011;49539;48.160;11.530;2024-02-21T05:48:00;1.95;;;1.13;;
55148;SDS011;49539;48.160;11.530;2024-02-21T05:50:25;0.77;;;0.57;;
55148;SDS011;49539;48.160;11.530;2024-02-21T05:52:52;1.73;;;0.98;;
55148;SDS011;49539;48.160;11.530;2024-02-21T05:55:17;2.47;;;0.95;;
55148;SDS011;49539;48.160;11.530;2024-02-21T05:57:43;5.93;;;0.93;;
55148;SDS011;49539;48.160;11.530;2024-02-21T06:00:08;1.73;;;1.05;;
55148;SDS011;49539;48.160;11.530;2024-02-21T06:02:34;3.03;;;1.10;;
55148;SDS011;49539;48.160;11.530;2024-02-21T06:04:59;7.30;;;1.10;;
55148;SDS011;49539;48.160;11.530;2024-02-21T06:07:24;4.57;;;0.90;;
55148;SDS011;49539;48.160;11.530;2024-02-21T06:09:50;4.55;;;1.33;;
55148;SDS011;49539;48.160;11.530;2024-02-21T06:12:15;1.63;;;1.00;;
55148;SDS011;49539;48.160;11.530;2024-02-21T06:14:40;1.95;;;1.02;;
55148;SDS011;49539;48.160;11.530;2024-02-21T06:17:06;2.72;;;1.25;;
55148;SDS011;49539;48.160;11.530;2024-02-21T06:19:31;1.98;;;1.17;;
55148;SDS011;49539;48.160;11.530;2024-02-21T06:21:56;2.13;;;1.20;;
55148;SDS011;49539;48.160;11.530;2024-02-21T06:24:22;2.00;;;0.80;;
55148;SDS011;49539;48.160;11.530;2024-02-21T06:26:47;1.92;;;0.90;;
55148;SDS011;49539;48.160;11.530;2024-02-21T06:29:12;4.72;;;1.10;;
55148;SDS011;49539;48.160;11.530;2024-02-21T06:31:38;2.88;;;1.02;;
55148;SDS011;49539;48.160;11.530;2024-02-21T06:34:04;1.77;;;0.95;;
55148;SDS011;49539;48.160;11.530;2024-02-21T06:36:29;3.15;;;1.15;;
55148;SDS011;49539;48.160;11.530;2024-02-21T06:38:54;5.88;;;1.58;;
55148;SDS011;49539;48.160;11.530;2024-02-21T06:41:20;2.22;;;1.08;;
55148;SDS011;49539;48.160;11.530;2024-02-21T06:43:46;1.85;;;0.93;;
55148;SDS011;49539;48.160;11.530;2024-02-21T06:46:11;3.13;;;1.02;;
55148;SDS011;49539;48.160;11.530;2024-02-21T06:48:37;1.50;;;0.88;;
55148;SDS011;49539;48.160;11.530;2024-02-21T06:51:03;1.92;;;1.00;;
55148;SDS011;49539;48.160;11.530;2024-02-21T06:53:28;4.40;;;1.25;;
55148;SDS011;49539;48.160;11.530;2024-02-21T06:55:53;4.13;;;1.02;;
55148;SDS011;49539;48.160;11.530;2024-02-21T06:58:19;2.97;;;1.00;;
55148;SDS011;49539;48.160;11.530;2024-02-21T07:00:44;2.47;;;1.23;;
55148;SDS011;49539;48.160;11.530;2024-02-21T07:03:10;2.28;;;1.38;;
55148;SDS011;49539;48.160;11.530;2024-02-21T07:05:35;2.67;;;1.23;;
55148;SDS011;49539;48.160;11.530;2024-02-21T07:08:00;1.52;;;0.98;;
55148;SDS011;49539;48.160;11.530;2024-02-21T07:10:26;2.22;;;1.10;;
55148;SDS011;49539;48.160;11.530;2024-02-21T07:12:53;1.30;;;0.80;;
55148;SDS011;49539;48.160;11.530;2024-02-21T07:15:18;5.85;;;1.25;;
55148;SDS011;49539;48.160;11.530;2024-02-21T07:17:43;3.25;;;1.10;;
55148;SDS011;49539;48.160;11.530;2024-02-21T07:20:09;4.50;;;1.08;;
55148;SDS011;49539;48.160;11.530;2024-02-21T07:22:34;5.30;;;1.23;;
55148;SDS011;49539;48.160;11.530;2024-02-21T07:24:59;1.95;;;1.15;;
55148;SDS011;49539;48.160;11.530;2024-02-21T07:27:25;1.35;;;1.00;;
55148;SDS011;49539;48.160;11.530;2024-02-21T07:29:53;4.43;;;1.13;;
55148;SDS011;49539;48.160;11.530;2024-02-21T07:32:18;3.15;;;1.20;;
55148;SDS011;49539;48.160;11.530;2024-02-21T07:34:44;1.80;;;1.08;;
55148;SDS011;49539;48.160;11.530;2024-02-21T07:37:09;5.18;;;1.00;;
55148;SDS011;49539;48.160;11.530;2024-02-21T07:39:37;2.17;;;0.98;;
55148;SDS011;49539;48.160;11.530;2024-02-21T07:42:03;1.00;;;0.75;;
55148;SDS011;49539;48.160;11.530;2024-02-21T07:44:28;1.95;;;0.95;;
55148;SDS011;49539;48.160;11.530;2024-02-21T07:46:53;2.38;;;1.00;;
55148;SDS011;49539;48.160;11.530;2024-02-21T07:49:19;0.85;;;0.70;;
55148;SDS011;49539;48.160;11.530;2024-02-21T07:51:44;2.72;;;0.90;;
55148;SDS011;49539;48.160;11.530;2024-02-21T07:54:09;1.23;;;0.60;;
55148;SDS011;49539;48.160;11.530;2024-02-21T07:56:35;4.88;;;0.90;;
55148;SDS011;49539;48.160;11.530;2024-02-21T07:59:00;9.73;;;1.33;;
55148;SDS011;49539;48.160;11.530;2024-02-21T08:01:25;4.53;;;1.35;;
55148;SDS011;49539;48.160;11.530;2024-02-21T08:03:51;2.78;;;0.77;;
55148;SDS011;49539;48.160;11.530;2024-02-21T08:06:16;1.55;;;1.00;;
55148;SDS011;49539;48.160;11.530;2024-02-21T08:08:41;5.05;;;1.10;;
55148;SDS011;49539;48.160;11.530;2024-02-21T08:11:06;1.23;;;0.70;;
55148;SDS011;49539;48.160;11.530;2024-02-21T08:13:32;2.28;;;0.90;;
55148;SDS011;49539;48.160;11.530;2024-02-21T08:15:57;2.63;;;0.90;;
55148;SDS011;49539;48.160;11.530;2024-02-21T08:18:23;3.65;;;0.77;;
55148;SDS011;49539;48.160;11.530;2024-02-21T08:20:48;4.25;;;1.23;;
55148;SDS011;49539;48.160;11.530;2024-02-21T08:23:16;2.08;;;0.85;;
55148;SDS011;49539;48.160;11.530;2024-02-21T08:25:42;2.63;;;0.80;;
55148;SDS011;49539;48.160;11.530;2024-02-21T08:28:07;4.35;;;0.88;;
55148;SDS011;49539;48.160;11.530;2024-02-21T08:30:33;2.17;;;0.90;;
55148;SDS011;49539;48.160;11.530;2024-02-21T08:32:59;3.90;;;1.00;;
55148;SDS011;49539;48.160;11.530;2024-02-21T08:35:24;3.47;;;1.00;;
55148;SDS011;49539;48.160;11.530;2024-02-21T08:37:49;2.65;;;0.80;;
55148;SDS011;49539;48.160;11.530;2024-02-21T08:40:15;2.90;;;1.00;;
55148;SDS011;49539;48.160;11.530;2024-02-21T08:42:44;0.85;;;0.70;;
55148;SDS011;49539;48.160;11.530;2024-02-21T08:45:10;1.42;;;0.50;;
55148;SDS011;49539;48.160;11.530;2024-02-21T08:47:35;1.77;;;0.95;;
55148;SDS011;49539;48.160;11.530;2024-02-21T08:50:03;0.85;;;0.55;;
55148;SDS011;49539;48.160;11.530;2024-02-21T08:52:29;1.27;;;0.65;;
55148;SDS011;49539;48.160;11.530;2024-02-21T08:54:54;1.80;;;0.77;;
55148;SDS011;49539;48.160;11.530;2024-02-21T08:57:19;1.58;;;0.70;;
55148;SDS011;49539;48.160;11.530;2024-02-21T08:59:45;2.30;;;0.93;;
55148;SDS011;49539;48.160;11.530;2024-02-21T09:02:10;7.53;;;3.40;;
55148;SDS011;49539;48.160;11.530;2024-02-21T09:04:36;3.42;;;1.15;;
55148;SDS011;49539;48.160;11.530;2024-02-21T09:07:01;1.58;;;0.90;;
55148;SDS011;49539;48.160;11.530;2024-02-21T09:09:26;2.83;;;1.33;;
55148;SDS011;49539;48.160;11.530;2024-02-21T09:11:53;2.03;;;0.70;;
55148;SDS011;49539;48.160;11.530;2024-02-21T09:14:19;4.32;;;0.80;;
55148;SDS011;49539;48.160;11.530;2024-02-21T09:16:44;1.65;;;0.60;;
55148;SDS011;49539;48.160;11.530;2024-02-21T09:19:09;0.95;;;0.60;;
55148;SDS011;49539;48.160;11.530;2024-02-21T09:21:39;1.45;;;0.63;;
55148;SDS011;49539;48.160;11.530;2024-02-21T09:24:05;1.95;;;0.70;;
55148;SDS011;49539;48.160;11.530;2024-02-21T09:26:30;2.05;;;0.80;;
55148;SDS011;49539;48.160;11.530;2024-02-21T09:28:55;3.50;;;1.02;;
55148;SDS011;49539;48.160;11.530;2024-02-21T09:31:21;1.33;;;0.55;;
55148;SDS011;49539;48.160;11.530;2024-02-21T09:33:46;0.88;;;0.60;;
55148;SDS011;49539;48.160;11.530;2024-02-21T09:36:11;0.82;;;0.55;;
55148;SDS011;49539;48.160;11.530;2024-02-21T09:38:36;1.17;;;0.47;;
55148;SDS011;49539;48.160;11.530;2024-02-21T09:43:36;0.75;;;0.35;;
55148;SDS011;49539;48.160;11.530;2024-02-21T09:46:05;1.58;;;0.60;;
55148;SDS011;49539;48.160;11.530;2024-02-21T09:48:33;1.20;;;0.55;;
55148;SDS011;49539;48.160;11.530;2024-02-21T09:51:03;0.40;;;0.40;;
55148;SDS011;49539;48.160;11.530;2024-02-21T09:53:29;0.57;;;0.40;;
55148;SDS011;49539;48.160;11.530;2024-02-21T09:55:55;1.13;;;0.55;;
55148;SDS011;49539;48.160;11.530;2024-02-21T09:58:22;3.38;;;0.68;;
55148;SDS011;49539;48.160;11.530;2024-02-21T10:00:47;1.08;;;0.50;;
55148;SDS011;49539;48.160;11.530;2024-02-21T10:03:12;0.73;;;0.52;;
55148;SDS011;49539;48.160;11.530;2024-02-21T10:05:38;0.55;;;0.55;;
55148;SDS011;49539;48.160;11.530;2024-02-21T10:08:04;1.25;;;0.47;;
55148;SDS011;49539;48.160;11.530;2024-02-21T10:10:30;4.60;;;0.93;;
55148;SDS011;49539;48.160;11.530;2024-02-21T10:12:55;1.67;;;0.60;;
55148;SDS011;49539;48.160;11.530;2024-02-21T10:15:21;1.60;;;0.40;;
55148;SDS011;49539;48.160;11.530;2024-02-21T10:17:53;0.82;;;0.60;;
55148;SDS011;49539;48.160;11.530;2024-02-21T10:20:23;0.63;;;0.50;;
55148;SDS011;49539;48.160;11.530;2024-02-21T10:22:48;1.58;;;0.68;;
55148;SDS011;49539;48.160;11.530;2024-02-21T10:25:13;0.90;;;0.57;;
55148;SDS011;49539;48.160;11.530;2024-02-21T10:27:39;0.50;;;0.50;;
55148;SDS011;49539;48.160;11.530;2024-02-21T10:30:06;3.55;;;0.63;;
55148;SDS011;49539;48.160;11.530;2024-02-21T10:32:32;1.73;;;0.63;;
55148;SDS011;49539;48.160;11.530;2024-02-21T10:35:01;0.40;;;0.40;;
55148;SDS011;49539;48.160;11.530;2024-02-21T10:37:26;0.85;;;0.45;;
55148;SDS011;49539;48.160;11.530;2024-02-21T10:39:53;0.50;;;0.50;;
55148;SDS011;49539;48.160;11.530;2024-02-21T10:42:18;2.25;;;0.50;;
55148;SDS011;49539;48.160;11.530;2024-02-21T10:44:46;1.42;;;0.60;;
55148;SDS011;49539;48.160;11.530;2024-02-21T10:47:15;1.42;;;0.40;;
55148;SDS011;49539;48.160;11.530;2024-02-21T10:49:45;0.50;;;0.38;;
55148;SDS011;49539;48.160;11.530;2024-02-21T10:57:22;0.50;;;0.40;;
55148;SDS011;49539;48.160;11.530;2024-02-21T10:59:48;1.15;;;0.40;;
55148;SDS011;49539;48.160;11.530;2024-02-21T11:02:14;0.88;;;0.57;;
55148;SDS011;49539;48.160;11.530;2024-02-21T11:04:39;1.23;;;0.50;;
55148;SDS011;49539;48.160;11.530;2024-02-21T11:07:05;2.72;;;0.63;;
55148;SDS011;49539;48.160;11.530;2024-02-21T11:09:31;0.45;;;0.40;;
55148;SDS011;49539;48.160;11.530;2024-02-21T11:11:57;3.05;;;0.60;;
55148;SDS011;49539;48.160;11.530;2024-02-21T11:14:25;2.20;;;0.60;;
55148;SDS011;49539;48.160;11.530;2024-02-21T11:16:51;2.97;;;0.40;;
55148;SDS011;49539;48.160;11.530;2024-02-21T11:21:45;0.93;;;0.30;;
55148;SDS011;49539;48.160;11.530;2024-02-21T11:24:10;0.95;;;0.40;;
55148;SDS011;49539;48.160;11.530;2024-02-21T11:26:39;0.68;;;0.50;;
55148;SDS011;49539;48.160;11.530;2024-02-21T11:29:04;0.40;;;0.40;;
55148;SDS011;49539;48.160;11.530;2024-02-21T11:31:43;0.70;;;0.30;;
55148;SDS011;49539;48.160;11.530;2024-02-21T11:34:12;1.42;;;0.40;;
55148;SDS011;49539;48.160;11.530;2024-02-21T11:36:50;0.38;;;0.30;;
55148;SDS011;49539;48.160;11.530;2024-02-21T11:39:19;0.43;;;0.32;;
55148;SDS011;49539;48.160;11.530;2024-02-21T11:41:47;0.30;;;0.20;;
55148;SDS011;49539;48.160;11.530;2024-02-21T11:44:12;1.27;;;0.50;;
55148;SDS011;49539;48.160;11.530;2024-02-21T11:46:37;0.80;;;0.30;;
55148;SDS011;49539;48.160;11.530;2024-02-21T11:49:03;0.45;;;0.40;;
55148;SDS011;49539;48.160;11.530;2024-02-21T11:51:28;0.88;;;0.38;;
55148;SDS011;49539;48.160;11.530;2024-02-21T11:53:54;6.63;;;0.50;;
55148;SDS011;49539;48.160;11.530;2024-02-21T11:56:19;0.40;;;0.30;;
55148;SDS011;49539;48.160;11.530;2024-02-21T11:58:48;0.77;;;0.40;;
55148;SDS011;49539;48.160;11.530;2024-02-21T12:01:14;1.55;;;0.30;;
55148;SDS011;49539;48.160;11.530;2024-02-21T12:03:39;1.75;;;0.60;;
55148;SDS011;49539;48.160;11.530;2024-02-21T12:06:06;0.80;;;0.40;;
55148;SDS011;49539;48.160;11.530;2024-02-21T12:08:41;2.25;;;0.55;;
55148;SDS011;49539;48.160;11.530;2024-02-21T12:11:17;1.42;;;0.30;;
55148;SDS011;49539;48.160;11.530;2024-02-21T12:13:43;0.77;;;0.47;;
55148;SDS011;49539;48.160;11.530;2024-02-21T12:16:08;0.43;;;0.20;;
55148;SDS011;49539;48.160;11.530;2024-02-21T12:18:34;1.13;;;0.50;;
55148;SDS011;49539;48.160;11.530;2024-02-21T12:20:59;0.57;;;0.30;;
55148;SDS011;49539;48.160;11.530;2024-02-21T12:23:26;3.10;;;0.40;;
55148;SDS011;49539;48.160;11.530;2024-02-21T12:25:52;0.73;;;0.52;;
55148;SDS011;49539;48.160;11.530;2024-02-21T12:28:19;0.38;;;0.30;;
55148;SDS011;49539;48.160;11.530;2024-02-21T12:30:44;0.30;;;0.30;;
55148;SDS011;49539;48.160;11.530;2024-02-21T12:33:10;0.45;;;0.30;;
55148;SDS011;49539;48.160;11.530;2024-02-21T12:35:35;0.20;;;0.20;;
55148;SDS011;49539;48.160;11.530;2024-02-21T12:38:00;0.40;;;0.40;;
55148;SDS011;49539;48.160;11.530;2024-02-21T12:40:26;4.50;;;0.30;;
55148;SDS011;49539;48.160;11.530;2024-02-21T12:42:57;0.40;;;0.32;;
55148;SDS011;49539;48.160;11.530;2024-02-21T12:45:23;0.32;;;0.30;;
55148;SDS011;49539;48.160;11.530;2024-02-21T12:47:48;0.52;;;0.30;;
55148;SDS011;49539;48.160;11.530;2024-02-21T12:50:15;1.30;;;0.40;;
55148;SDS011;49539;48.160;11.530;2024-02-21T12:52:40;1.27;;;0.38;;
55148;SDS011;49539;48.160;11.530;2024-02-21T12:55:06;0.30;;;0.30;;
55148;SDS011;49539;48.160;11.530;2024-02-21T12:57:31;0.60;;;0.40;;
55148;SDS011;49539;48.160;11.530;2024-02-21T12:59:56;2.38;;;0.60;;
55148;SDS011;49539;48.160;11.530;2024-02-21T13:02:22;1.92;;;0.50;;
55148;SDS011;49539;48.160;11.530;2024-02-21T13:04:47;0.80;;;0.30;;
55148;SDS011;49539;48.160;11.530;2024-02-21T13:07:12;1.85;;;0.32;;
55148;SDS011;49539;48.160;11.530;2024-02-21T13:09:38;0.90;;;0.20;;
55148;SDS011;49539;48.160;11.530;2024-02-21T13:12:03;0.70;;;0.20;;
55148;SDS011;49539;48.160;11.530;2024-02-21T13:14:29;0.30;;;0.30;;
55148;SDS011;49539;48.160;11.530;2024-02-21T13:16:54;0.60;;;0.20;;
55148;SDS011;49539;48.160;11.530;2024-02-21T13:19:19;0.47;;;0.30;;
55148;SDS011;49539;48.160;11.530;2024-02-21T13:21:45;1.27;;;0.40;;
55148;SDS011;49539;48.160;11.530;2024-02-21T13:24:10;1.23;;;0.40;;
55148;SDS011;49539;48.160;11.530;2024-02-21T13:26:36;3.22;;;0.40;;
55148;SDS011;49539;48.160;11.530;2024-02-21T13:29:01;0.35;;;0.35;;
55148;SDS011;49539;48.160;11.530;2024-02-21T13:31:27;0.50;;;0.32;;
55148;SDS011;49539;48.160;11.530;2024-02-21T13:33:53;0.52;;;0.30;;
55148;SDS011;49539;48.160;11.530;2024-02-21T13:36:18;0.70;;;0.40;;
55148;SDS011;49539;48.160;11.530;2024-02-21T13:38:44;0.20;;;0.20;;
55148;SDS011;49539;48.160;11.530;2024-02-21T13:41:09;0.17;;;0.15;;
55148;SDS011;49539;48.160;11.530;2024-02-21T13:43:34;1.05;;;0.22;;
55148;SDS011;49539;48.160;11.530;2024-02-21T13:46:00;0.28;;;0.20;;
55148;SDS011;49539;48.160;11.530;2024-02-21T13:48:30;0.82;;;0.30;;
55148;SDS011;49539;48.160;11.530;2024-02-21T13:50:55;1.05;;;0.40;;
55148;SDS011;49539;48.160;11.530;2024-02-21T13:53:21;5.97;;;0.45;;
55148;SDS011;49539;48.160;11.530;2024-02-21T13:55:48;0.30;;;0.30;;
55148;SDS011;49539;48.160;11.530;2024-02-21T13:58:13;2.38;;;0.57;;
55148;SDS011;49539;48.160;11.530;2024-02-21T14:00:39;1.85;;;0.30;;
55148;SDS011;49539;48.160;11.530;2024-02-21T14:03:04;0.57;;;0.30;;
55148;SDS011;49539;48.160;11.530;2024-02-21T14:05:30;1.60;;;0.40;;
55148;SDS011;49539;48.160;11.530;2024-02-21T14:07:55;1.33;;;0.35;;
55148;SDS011;49539;48.160;11.530;2024-02-21T14:10:21;1.05;;;0.40;;
55148;SDS011;49539;48.160;11.530;2024-02-21T14:12:46;0.28;;;0.28;;
55148;SDS011;49539;48.160;11.530;2024-02-21T14:15:13;0.30;;;0.20;;
55148;SDS011;49539;48.160;11.530;2024-02-21T14:17:38;2.88;;;0.43;;
55148;SDS011;49539;48.160;11.530;2024-02-21T14:20:04;1.70;;;0.40;;
55148;SDS011;49539;48.160;11.530;2024-02-21T14:22:30;4.65;;;0.50;;
55148;SDS011;49539;48.160;11.530;2024-02-21T14:24:55;0.50;;;0.20;;
55148;SDS011;49539;48.160;11.530;2024-02-21T14:27:21;1.65;;;0.20;;
55148;SDS011;49539;48.160;11.530;2024-02-21T14:29:47;0.25;;;0.25;;
55148;SDS011;49539;48.160;11.530;2024-02-21T14:32:12;2.35;;;0.20;;
55148;SDS011;49539;48.160;11.530;2024-02-21T14:34:37;0.55;;;0.30;;